Time;durP1;ratioP1;P1;durP2;ratioP2;P2;SDS_P1;SDS_P2;PMS_P1;PMS_P2;Temp;Humidity;BMP_temperature;BMP_pressure;BME280_temperature;BME280_humidity;BME280_pressure;Samples;Min_cycle;Max_cycle;Signal;HPM_P1;HPM_P2
2022/08/24 00:00:27;;;;;;;5.18;2.15;;;;;;;;;;1024131;28;20039;-74
2022/08/24 00:00:58;;;;;;;4.60;2.28;;;;;;;;;;1027865;28;20031;-74
2022/08/24 00:01:28;;;;;;;8.13;2.22;;;;;;;;;;1027916;28;20029;-74
2022/08/24 00:02:00;;;;;;;5.25;2.67;;;;;;;;;;1027859;28;20023;-74
2022/08/24 00:02:30;;;;;;;7.10;1.48;;;;;;;;;;1027871;28;20471;-74
2022/08/24 00:03:01;;;;;;;19.42;2.90;;;;;;;;;;1027822;28;20027;-74
2022/08/24 00:03:32;;;;;;;7.10;2.70;;;;;;;;;;1027922;28;20503;-74
2022/08/24 00:04:03;;;;;;;25.27;3.72;;;;;;;;;;1027800;28;20090;-74
2022/08/24 00:04:33;;;;;;;5.13;2.75;;;;;;;;;;1028258;28;20475;-74
2022/08/24 00:05:06;;;;;;;5.53;2.28;;;;;;;;;;1028133;28;20023;-74
2022/08/24 00:05:36;;;;;;;8.10;2.72;;;;;;;;;;1028255;28;20447;-74
2022/08/24 00:06:08;;;;;;;10.30;2.85;;;;;;;;;;1027708;28;20031;-74
2022/08/24 00:06:39;;;;;;;10.90;2.13;;;;;;;;;;1027950;28;20027;-74
2022/08/24 00:07:09;;;;;;;9.48;2.50;;;;;;;;;;1027751;28;20031;-73
2022/08/24 00:07:40;;;;;;;9.90;3.25;;;;;;;;;;1027972;28;20041;-74
2022/08/24 00:08:11;;;;;;;8.07;3.05;;;;;;;;;;1028180;28;20114;-74
2022/08/24 00:08:43;;;;;;;8.30;3.05;;;;;;;;;;1028213;28;20026;-74
2022/08/24 00:09:14;;;;;;;13.00;2.35;;;;;;;;;;1028083;28;20073;-74
2022/08/24 00:09:45;;;;;;;9.50;3.28;;;;;;;;;;1028315;28;20442;-74
2022/08/24 00:10:16;;;;;;;6.78;2.35;;;;;;;;;;1028036;28;20065;-74
2022/08/24 00:10:47;;;;;;;9.20;2.58;;;;;;;;;;1028290;28;20121;-74
2022/08/24 00:11:18;;;;;;;11.75;1.98;;;;;;;;;;1027923;28;20480;-74
2022/08/24 00:11:48;;;;;;;15.65;2.35;;;;;;;;;;1028183;28;20031;-74
2022/08/24 00:12:19;;;;;;;12.98;3.50;;;;;;;;;;1028006;28;20026;-74
2022/08/24 00:12:49;;;;;;;10.43;2.25;;;;;;;;;;1028315;28;20498;-74
2022/08/24 00:13:20;;;;;;;15.63;2.40;;;;;;;;;;1028068;28;20062;-74
2022/08/24 00:13:51;;;;;;;10.73;3.10;;;;;;;;;;1028281;28;20080;-74
2022/08/24 00:14:22;;;;;;;11.05;2.85;;;;;;;;;;1028081;28;20093;-74
2022/08/24 00:14:53;;;;;;;13.13;3.13;;;;;;;;;;1027903;28;20487;-74
2022/08/24 00:15:24;;;;;;;5.75;3.05;;;;;;;;;;1027647;28;20029;-74
2022/08/24 00:15:55;;;;;;;9.05;2.95;;;;;;;;;;1027926;28;20026;-74
2022/08/24 00:16:25;;;;;;;7.38;2.70;;;;;;;;;;1027743;28;20034;-74
2022/08/24 00:16:56;;;;;;;12.25;2.85;;;;;;;;;;1023911;28;20031;-74
2022/08/24 00:17:27;;;;;;;16.23;2.58;;;;;;;;;;1027880;28;20081;-74
2022/08/24 00:17:58;;;;;;;5.40;2.67;;;;;;;;;;1027786;28;20054;-74
2022/08/24 00:18:28;;;;;;;8.73;2.60;;;;;;;;;;1027836;28;20039;-74
2022/08/24 00:18:59;;;;;;;5.90;1.67;;;;;;;;;;1028209;28;20038;-74
2022/08/24 00:19:30;;;;;;;15.85;3.33;;;;;;;;;;1028147;28;20543;-74
2022/08/24 00:20:01;;;;;;;13.02;3.22;;;;;;;;;;1028137;28;20038;-74
2022/08/24 00:20:32;;;;;;;14.43;4.07;;;;;;;;;;1027789;28;20023;-74
2022/08/24 00:21:03;;;;;;;19.95;4.35;;;;;;;;;;1027808;28;20554;-74
2022/08/24 00:21:34;;;;;;;13.70;3.45;;;;;;;;;;1027809;28;20027;-74
2022/08/24 00:22:04;;;;;;;8.77;2.72;;;;;;;;;;1027638;28;20117;-74
2022/08/24 00:22:35;;;;;;;14.82;3.65;;;;;;;;;;1028200;28;20501;-74
2022/08/24 00:23:06;;;;;;;8.85;3.08;;;;;;;;;;1028065;28;20109;-74
2022/08/24 00:23:37;;;;;;;10.25;3.05;;;;;;;;;;1028106;28;20502;-74
2022/08/24 00:24:08;;;;;;;10.43;4.05;;;;;;;;;;1027624;28;20077;-74
2022/08/24 00:24:39;;;;;;;14.50;4.13;;;;;;;;;;1027869;28;20049;-74
2022/08/24 00:25:10;;;;;;;12.95;2.70;;;;;;;;;;1027767;28;20034;-74
2022/08/24 00:25:41;;;;;;;14.75;2.97;;;;;;;;;;1027774;28;20158;-74
2022/08/24 00:26:13;;;;;;;12.50;2.90;;;;;;;;;;1027772;28;20414;-74
2022/08/24 00:26:44;;;;;;;12.55;3.75;;;;;;;;;;1027875;28;20505;-74
2022/08/24 00:27:15;;;;;;;13.65;5.15;;;;;;;;;;1027689;28;20026;-74
2022/08/24 00:27:46;;;;;;;17.50;4.13;;;;;;;;;;1027767;28;20034;-74
2022/08/24 00:28:16;;;;;;;13.38;3.92;;;;;;;;;;1027689;28;20025;-74
2022/08/24 00:28:47;;;;;;;27.90;4.15;;;;;;;;;;1027905;28;20033;-74
2022/08/24 00:29:17;;;;;;;6.93;2.85;;;;;;;;;;1027728;28;20451;-74
2022/08/24 00:29:48;;;;;;;14.55;3.92;;;;;;;;;;1028209;28;20023;-74
2022/08/24 00:30:19;;;;;;;10.30;3.90;;;;;;;;;;1027993;28;20134;-74
2022/08/24 00:30:50;;;;;;;12.82;3.08;;;;;;;;;;1027809;28;20022;-74
2022/08/24 00:31:21;;;;;;;18.45;3.83;;;;;;;;;;1027534;28;20073;-74
2022/08/24 00:31:51;;;;;;;13.88;4.35;;;;;;;;;;1027666;28;20030;-74
2022/08/24 00:32:22;;;;;;;16.33;4.85;;;;;;;;;;1027588;28;20069;-74
2022/08/24 00:32:53;;;;;;;16.30;3.97;;;;;;;;;;1027783;28;20574;-74
2022/08/24 00:33:23;;;;;;;15.40;4.10;;;;;;;;;;1027637;28;20031;-74
2022/08/24 00:33:55;;;;;;;15.23;4.63;;;;;;;;;;1027946;28;20030;-74
2022/08/24 00:34:26;;;;;;;10.55;3.10;;;;;;;;;;1023898;28;20118;-74
2022/08/24 00:34:57;;;;;;;10.43;4.15;;;;;;;;;;1027790;28;20027;-74
2022/08/24 00:35:28;;;;;;;20.70;5.25;;;;;;;;;;1027773;28;20483;-74
2022/08/24 00:35:59;;;;;;;10.30;4.30;;;;;;;;;;1027649;28;20023;-74
2022/08/24 00:36:29;;;;;;;21.63;5.05;;;;;;;;;;1023749;29;20436;-74
2022/08/24 00:37:00;;;;;;;16.08;4.47;;;;;;;;;;1023734;29;20451;-74
2022/08/24 00:37:30;;;;;;;20.65;4.90;;;;;;;;;;1023925;28;20082;-74
2022/08/24 00:38:01;;;;;;;24.58;5.72;;;;;;;;;;1027621;28;20503;-74
2022/08/24 00:38:34;;;;;;;18.88;5.53;;;;;;;;;;1027737;28;20052;-74
2022/08/24 00:39:05;;;;;;;24.10;5.70;;;;;;;;;;1027753;28;20419;-74
2022/08/24 00:39:35;;;;;;;27.75;7.40;;;;;;;;;;1027758;28;20113;-74
2022/08/24 00:40:10;;;;;;;27.73;5.63;;;;;;;;;;1027734;28;20105;-74
2022/08/24 00:40:44;;;;;;;25.65;5.65;;;;;;;;;;1028189;28;20046;-74
2022/08/24 00:41:14;;;;;;;23.08;5.93;;;;;;;;;;1027971;28;20065;-74
2022/08/24 00:41:46;;;;;;;16.35;5.53;;;;;;;;;;1028105;28;20025;-74
2022/08/24 00:42:17;;;;;;;16.75;4.60;;;;;;;;;;1027509;28;20023;-74
2022/08/24 00:42:49;;;;;;;47.60;5.95;;;;;;;;;;1027780;28;20081;-74
2022/08/24 00:43:21;;;;;;;29.67;6.13;;;;;;;;;;1027663;28;20043;-74
2022/08/24 00:43:57;;;;;;;28.92;6.22;;;;;;;;;;1027733;28;20085;-74
2022/08/24 00:44:28;;;;;;;19.80;5.30;;;;;;;;;;1027752;28;20064;-74
2022/08/24 00:44:59;;;;;;;26.05;5.72;;;;;;;;;;1027714;28;20483;-74
2022/08/24 00:45:34;;;;;;;16.83;4.95;;;;;;;;;;1027889;28;20039;-74
2022/08/24 00:46:14;;;;;;;22.70;4.80;;;;;;;;;;1027577;28;20114;-74
2022/08/24 00:46:54;;;;;;;15.38;4.05;;;;;;;;;;1027770;28;20093;-74
2022/08/24 00:47:26;;;;;;;12.05;4.28;;;;;;;;;;1027657;28;20122;-74
2022/08/24 00:47:58;;;;;;;14.88;4.68;;;;;;;;;;1027924;28;20038;-74
2022/08/24 00:48:30;;;;;;;18.88;5.22;;;;;;;;;;1028025;28;20026;-74
2022/08/24 00:49:03;;;;;;;21.58;4.28;;;;;;;;;;1027939;28;20026;-74
2022/08/24 00:49:39;;;;;;;13.48;4.82;;;;;;;;;;1027619;28;20034;-74
2022/08/24 00:50:13;;;;;;;12.27;4.50;;;;;;;;;;1027725;28;20089;-74
2022/08/24 00:50:46;;;;;;;18.23;4.93;;;;;;;;;;1027791;28;20431;-74
2022/08/24 00:51:22;;;;;;;10.55;4.30;;;;;;;;;;1027274;28;20054;-74
2022/08/24 00:52:11;;;;;;;10.65;4.18;;;;;;;;;;1027564;28;20030;-74
2022/08/24 00:52:46;;;;;;;13.85;4.15;;;;;;;;;;1027782;28;20078;-74
2022/08/24 00:53:27;;;;;;;25.33;5.55;;;;;;;;;;1027678;28;20578;-74
2022/08/24 00:54:03;;;;;;;18.88;4.20;;;;;;;;;;1028014;28;20462;-74
2022/08/24 00:54:37;;;;;;;20.90;3.70;;;;;;;;;;1028083;28;20844;-74
2022/08/24 00:55:10;;;;;;;17.90;5.20;;;;;;;;;;1027942;28;20069;-74
2022/08/24 00:55:42;;;;;;;13.10;4.85;;;;;;;;;;1028074;28;20510;-74
2022/08/24 00:56:20;;;;;;;13.32;5.25;;;;;;;;;;1028005;28;20451;-74
2022/08/24 00:56:53;;;;;;;12.02;4.18;;;;;;;;;;1028056;28;20487;-74
2022/08/24 00:57:26;;;;;;;13.52;5.00;;;;;;;;;;1027888;28;20038;-74
2022/08/24 00:57:58;;;;;;;23.63;4.47;;;;;;;;;;1028014;28;20073;-74
2022/08/24 00:58:32;;;;;;;23.70;4.28;;;;;;;;;;1027996;28;20114;-74
2022/08/24 00:59:23;;;;;;;23.63;7.45;;;;;;;;;;1028025;28;20419;-74
2022/08/24 01:00:14;;;;;;;36.55;5.82;;;;;;;;;;1023667;28;20118;-74
2022/08/24 01:00:47;;;;;;;23.25;4.78;;;;;;;;;;1023432;29;20042;-74
2022/08/24 01:01:17;;;;;;;18.15;4.72;;;;;;;;;;1023557;29;20019;-74
2022/08/24 01:01:50;;;;;;;30.27;5.47;;;;;;;;;;1023959;29;20118;-74
2022/08/24 01:02:23;;;;;;;11.35;4.15;;;;;;;;;;1023926;28;20031;-74
2022/08/24 01:02:57;;;;;;;14.73;3.78;;;;;;;;;;1024136;28;20031;-74
2022/08/24 01:03:28;;;;;;;10.63;4.13;;;;;;;;;;1023961;28;20107;-74
2022/08/24 01:03:59;;;;;;;26.15;4.82;;;;;;;;;;1023887;28;20174;-74
2022/08/24 01:04:34;;;;;;;25.38;5.72;;;;;;;;;;1027672;28;20085;-74
2022/08/24 01:05:05;;;;;;;18.80;5.15;;;;;;;;;;1030413;28;20034;-74
2022/08/24 01:05:37;;;;;;;24.73;6.88;;;;;;;;;;1027671;28;20058;-74
2022/08/24 01:06:08;;;;;;;29.65;9.27;;;;;;;;;;1027710;28;20050;-74
2022/08/24 01:06:38;;;;;;;23.15;8.82;;;;;;;;;;1027724;28;20068;-74
2022/08/24 01:07:09;;;;;;;26.65;6.88;;;;;;;;;;1027630;28;20463;-74
2022/08/24 01:07:40;;;;;;;15.15;6.13;;;;;;;;;;1028027;28;20054;-74
2022/08/24 01:08:11;;;;;;;21.75;8.48;;;;;;;;;;1027918;28;20045;-74
2022/08/24 01:08:42;;;;;;;32.35;7.38;;;;;;;;;;1028042;28;20480;-74
2022/08/24 01:09:13;;;;;;;29.20;7.45;;;;;;;;;;1027490;28;20031;-74
2022/08/24 01:09:45;;;;;;;23.08;8.18;;;;;;;;;;1027765;28;20027;-74
2022/08/24 01:10:19;;;;;;;34.05;10.23;;;;;;;;;;1027488;28;20138;-74
2022/08/24 01:11:11;;;;;;;24.30;8.75;;;;;;;;;;1023739;29;20669;-74
2022/08/24 01:11:42;;;;;;;40.55;13.43;;;;;;;;;;1023571;29;20031;-74
2022/08/24 01:12:12;;;;;;;28.10;12.10;;;;;;;;;;1023587;28;20512;-74
2022/08/24 01:12:47;;;;;;;40.45;14.60;;;;;;;;;;1023736;29;20118;-74
2022/08/24 01:13:18;;;;;;;37.00;12.73;;;;;;;;;;1023511;29;20035;-74
2022/08/24 01:13:50;;;;;;;44.92;13.00;;;;;;;;;;1023784;29;20050;-74
2022/08/24 01:14:21;;;;;;;47.03;13.27;;;;;;;;;;1023610;29;20117;-74
2022/08/24 01:14:52;;;;;;;41.15;15.35;;;;;;;;;;1023865;29;20027;-74
2022/08/24 01:15:23;;;;;;;46.20;16.08;;;;;;;;;;1023810;28;20074;-73
2022/08/24 01:15:57;;;;;;;39.55;14.35;;;;;;;;;;1024031;28;20122;-73
2022/08/24 01:18:57;;;;;;;30.95;11.82;;;;;;;;;;1023908;29;20035;-74
2022/08/24 01:19:35;;;;;;;38.00;13.27;;;;;;;;;;1023989;28;20046;-74
2022/08/24 01:20:06;;;;;;;29.98;11.63;;;;;;;;;;1023488;29;20027;-73
2022/08/24 01:20:37;;;;;;;38.00;11.85;;;;;;;;;;1023715;29;20079;-74
2022/08/24 01:21:14;;;;;;;38.25;10.57;;;;;;;;;;1023647;29;20027;-74
2022/08/24 01:22:07;;;;;;;38.10;10.30;;;;;;;;;;1023740;28;20543;-74
2022/08/24 01:22:38;;;;;;;36.35;11.80;;;;;;;;;;1021243;28;20085;-74
2022/08/24 01:23:12;;;;;;;30.15;10.38;;;;;;;;;;1028541;28;20450;-74
2022/08/24 01:23:51;;;;;;;35.33;11.05;;;;;;;;;;1030564;28;20027;-74
2022/08/24 01:24:21;;;;;;;41.88;12.85;;;;;;;;;;1027041;28;20189;-74
2022/08/24 01:24:52;;;;;;;33.97;11.55;;;;;;;;;;1027636;28;20035;-74
2022/08/24 01:25:24;;;;;;;36.17;11.35;;;;;;;;;;1028818;28;20125;-74
2022/08/24 01:25:54;;;;;;;30.80;11.10;;;;;;;;;;1031781;28;20564;-74
2022/08/24 01:26:36;;;;;;;40.30;11.52;;;;;;;;;;1027962;28;20025;-74
2022/08/24 01:27:08;;;;;;;25.65;9.27;;;;;;;;;;1027406;28;20483;-74
2022/08/24 01:27:40;;;;;;;31.35;9.98;;;;;;;;;;1027252;28;20498;-74
2022/08/24 01:28:16;;;;;;;22.17;8.13;;;;;;;;;;1027501;28;20082;-74
2022/08/24 01:28:49;;;;;;;25.02;8.07;;;;;;;;;;1026225;28;20501;-74
2022/08/24 01:29:25;;;;;;;33.95;8.88;;;;;;;;;;1027458;28;20538;-74
2022/08/24 01:29:57;;;;;;;26.13;8.13;;;;;;;;;;1028049;28;20062;-74
2022/08/24 01:30:28;;;;;;;29.52;8.20;;;;;;;;;;1027067;28;20026;-74
2022/08/24 01:30:59;;;;;;;28.60;7.63;;;;;;;;;;1027526;28;20029;-74
2022/08/24 01:31:30;;;;;;;21.83;7.65;;;;;;;;;;1023603;28;20038;-74
2022/08/24 01:32:00;;;;;;;34.78;7.50;;;;;;;;;;1023196;28;20062;-74
2022/08/24 01:32:31;;;;;;;38.92;7.88;;;;;;;;;;1027508;28;20112;-74
2022/08/24 01:33:04;;;;;;;16.48;6.72;;;;;;;;;;1026979;28;20045;-74
2022/08/24 01:33:35;;;;;;;20.55;7.63;;;;;;;;;;1027510;28;20084;-74
2022/08/24 01:34:06;;;;;;;32.08;6.82;;;;;;;;;;1027491;28;20534;-74
2022/08/24 01:34:36;;;;;;;58.33;7.60;;;;;;;;;;1027148;28;20062;-74
2022/08/24 01:35:07;;;;;;;21.55;6.15;;;;;;;;;;1027458;28;20019;-74
2022/08/24 01:35:38;;;;;;;22.25;6.78;;;;;;;;;;1027939;28;20026;-74
2022/08/24 01:36:17;;;;;;;21.42;7.38;;;;;;;;;;1028541;28;20471;-74
2022/08/24 01:36:49;;;;;;;16.98;6.38;;;;;;;;;;1024022;28;20399;-74
2022/08/24 01:37:20;;;;;;;20.65;6.53;;;;;;;;;;1026301;28;20038;-74
2022/08/24 01:37:51;;;;;;;24.65;6.55;;;;;;;;;;1028062;28;20137;-74
2022/08/24 01:38:21;;;;;;;30.92;6.25;;;;;;;;;;1028111;28;20027;-74
2022/08/24 01:38:52;;;;;;;41.90;9.25;;;;;;;;;;1027519;28;20089;-74
2022/08/24 01:39:25;;;;;;;48.03;6.72;;;;;;;;;;1027321;28;20390;-74
2022/08/24 01:39:56;;;;;;;24.92;4.63;;;;;;;;;;1027687;28;20034;-74
2022/08/24 01:40:31;;;;;;;37.83;6.43;;;;;;;;;;1027550;28;20023;-74
2022/08/24 01:41:03;;;;;;;17.73;5.88;;;;;;;;;;1026926;28;20077;-74
2022/08/24 01:41:33;;;;;;;11.93;4.35;;;;;;;;;;1026686;28;20054;-74
2022/08/24 01:42:04;;;;;;;15.50;5.93;;;;;;;;;;1027212;28;20062;-74
2022/08/24 01:42:35;;;;;;;17.42;4.78;;;;;;;;;;1027829;28;20034;-74
2022/08/24 01:43:06;;;;;;;25.35;5.35;;;;;;;;;;1027468;28;20057;-74
2022/08/24 01:43:36;;;;;;;18.27;5.20;;;;;;;;;;1026894;28;20038;-74
2022/08/24 01:44:08;;;;;;;19.67;5.57;;;;;;;;;;1027394;28;20047;-74
2022/08/24 01:44:40;;;;;;;28.48;6.97;;;;;;;;;;1027908;28;20159;-74
2022/08/24 01:45:11;;;;;;;28.40;5.63;;;;;;;;;;1027171;28;20029;-74
2022/08/24 01:45:42;;;;;;;37.83;7.32;;;;;;;;;;1027253;28;20030;-74
2022/08/24 01:46:12;;;;;;;21.05;6.07;;;;;;;;;;1027423;28;20481;-74
2022/08/24 01:46:44;;;;;;;24.58;5.90;;;;;;;;;;1027988;28;20206;-74
2022/08/24 01:47:15;;;;;;;14.07;5.68;;;;;;;;;;1027254;28;20465;-74
2022/08/24 01:47:46;;;;;;;35.47;5.90;;;;;;;;;;1027669;28;20041;-74
2022/08/24 01:48:18;;;;;;;14.05;5.70;;;;;;;;;;1023140;28;20078;-74
2022/08/24 01:48:49;;;;;;;12.88;3.80;;;;;;;;;;1024085;28;20043;-74
2022/08/24 01:49:21;;;;;;;28.92;5.38;;;;;;;;;;1026823;28;20572;-74
2022/08/24 01:49:51;;;;;;;19.65;6.10;;;;;;;;;;1027752;28;20027;-74
2022/08/24 01:50:22;;;;;;;27.20;6.32;;;;;;;;;;1027411;28;20539;-74
2022/08/24 01:50:53;;;;;;;29.33;6.15;;;;;;;;;;1028012;28;20066;-74
2022/08/24 01:51:27;;;;;;;37.15;6.10;;;;;;;;;;1027309;28;20034;-74
2022/08/24 01:51:58;;;;;;;17.08;3.80;;;;;;;;;;1029063;28;20517;-74
2022/08/24 01:52:29;;;;;;;22.05;4.65;;;;;;;;;;1029564;28;20120;-74
2022/08/24 01:53:01;;;;;;;22.00;4.38;;;;;;;;;;1027540;28;20399;-74
2022/08/24 01:53:32;;;;;;;25.08;4.22;;;;;;;;;;1029872;28;20031;-74
2022/08/24 01:54:04;;;;;;;18.75;4.68;;;;;;;;;;1026695;28;20113;-74
2022/08/24 01:54:35;;;;;;;28.90;5.18;;;;;;;;;;1027576;28;20541;-74
2022/08/24 01:55:10;;;;;;;30.75;5.15;;;;;;;;;;1027335;28;20035;-74
2022/08/24 01:55:40;;;;;;;24.45;4.35;;;;;;;;;;1027366;28;20126;-74
2022/08/24 01:56:11;;;;;;;23.80;4.45;;;;;;;;;;1030966;28;20536;-74
2022/08/24 01:56:42;;;;;;;16.60;4.53;;;;;;;;;;1027965;28;20497;-74
2022/08/24 01:57:13;;;;;;;19.75;5.70;;;;;;;;;;1027622;28;20117;-74
2022/08/24 01:57:44;;;;;;;32.42;5.32;;;;;;;;;;1027585;28;20501;-74
2022/08/24 01:58:14;;;;;;;14.48;5.18;;;;;;;;;;1023209;28;20027;-74
2022/08/24 01:58:46;;;;;;;27.33;5.68;;;;;;;;;;1023684;29;20122;-74
2022/08/24 01:59:18;;;;;;;22.80;5.78;;;;;;;;;;1023008;28;20031;-74
2022/08/24 01:59:48;;;;;;;19.83;5.00;;;;;;;;;;1027688;28;20031;-74
2022/08/24 02:00:19;;;;;;;25.17;5.20;;;;;;;;;;1027313;28;20113;-74
2022/08/24 02:00:49;;;;;;;19.15;5.53;;;;;;;;;;1027997;28;20575;-74
2022/08/24 02:01:20;;;;;;;20.65;4.80;;;;;;;;;;1027263;28;20030;-74
2022/08/24 02:01:54;;;;;;;23.77;4.05;;;;;;;;;;1027513;28;20220;-74
2022/08/24 02:02:26;;;;;;;21.05;4.20;;;;;;;;;;1028872;28;20040;-74
2022/08/24 02:02:57;;;;;;;14.57;6.65;;;;;;;;;;1029700;28;20022;-74
2022/08/24 02:03:27;;;;;;;13.45;4.93;;;;;;;;;;1028167;28;20185;-74
2022/08/24 02:04:00;;;;;;;11.70;4.15;;;;;;;;;;1028528;28;20033;-74
2022/08/24 02:04:35;;;;;;;17.95;4.45;;;;;;;;;;1028447;28;20027;-74
2022/08/24 02:05:07;;;;;;;15.50;3.67;;;;;;;;;;1027811;28;20031;-74
2022/08/24 02:05:37;;;;;;;11.60;4.10;;;;;;;;;;1028997;28;20038;-74
2022/08/24 02:06:08;;;;;;;25.00;5.35;;;;;;;;;;1025361;28;20543;-74
2022/08/24 02:06:38;;;;;;;15.05;4.60;;;;;;;;;;1023660;28;20041;-74
2022/08/24 02:07:09;;;;;;;13.50;3.88;;;;;;;;;;1023459;28;20035;-74
2022/08/24 02:07:40;;;;;;;12.27;4.32;;;;;;;;;;1025309;28;20042;-74
2022/08/24 02:08:10;;;;;;;16.70;4.55;;;;;;;;;;1027083;28;20018;-74
2022/08/24 02:08:41;;;;;;;35.65;5.35;;;;;;;;;;1027282;28;20030;-74
2022/08/24 02:09:12;;;;;;;20.15;4.32;;;;;;;;;;1027828;28;20049;-74
2022/08/24 02:09:42;;;;;;;26.60;3.50;;;;;;;;;;1023628;28;20134;-74
2022/08/24 02:10:14;;;;;;;28.33;4.28;;;;;;;;;;1025406;28;20024;-74
2022/08/24 02:10:44;;;;;;;11.07;4.45;;;;;;;;;;1028267;28;20023;-74
2022/08/24 02:11:15;;;;;;;11.32;3.00;;;;;;;;;;1027914;28;20050;-74
2022/08/24 02:11:46;;;;;;;10.55;3.35;;;;;;;;;;1028147;28;20010;-74
2022/08/24 02:12:17;;;;;;;15.00;3.70;;;;;;;;;;1027687;28;20035;-74
2022/08/24 02:12:56;;;;;;;8.43;3.00;;;;;;;;;;1027498;28;20026;-74
2022/08/24 02:13:27;;;;;;;12.38;4.95;;;;;;;;;;1022193;28;20515;-74
2022/08/24 02:13:58;;;;;;;12.70;3.90;;;;;;;;;;1024330;28;20114;-74
2022/08/24 02:14:29;;;;;;;14.75;3.45;;;;;;;;;;1027446;28;20027;-74
2022/08/24 02:15:01;;;;;;;13.70;4.40;;;;;;;;;;1027658;28;20122;-74
2022/08/24 02:15:39;;;;;;;22.15;4.90;;;;;;;;;;1029330;28;20483;-74
2022/08/24 02:16:10;;;;;;;28.70;4.15;;;;;;;;;;1026054;28;20027;-74
2022/08/24 02:16:41;;;;;;;15.10;4.78;;;;;;;;;;1026482;28;20799;-74
2022/08/24 02:17:12;;;;;;;15.18;4.43;;;;;;;;;;1027215;28;20027;-74
2022/08/24 02:17:42;;;;;;;17.88;4.57;;;;;;;;;;1027503;28;20117;-74
2022/08/24 02:18:13;;;;;;;19.55;4.55;;;;;;;;;;1026624;28;20499;-74
2022/08/24 02:18:44;;;;;;;11.45;4.63;;;;;;;;;;1026267;28;20397;-74
2022/08/24 02:19:14;;;;;;;16.23;4.25;;;;;;;;;;1026713;28;20113;-74
2022/08/24 02:19:46;;;;;;;19.95;6.25;;;;;;;;;;1026311;28;20050;-74
2022/08/24 02:20:17;;;;;;;12.23;5.75;;;;;;;;;;1027664;28;20029;-74
2022/08/24 02:20:48;;;;;;;11.70;5.63;;;;;;;;;;1027160;28;20408;-74
2022/08/24 02:21:19;;;;;;;21.08;5.53;;;;;;;;;;1026593;28;20125;-74
2022/08/24 02:21:50;;;;;;;11.15;5.03;;;;;;;;;;1028153;28;20026;-74
2022/08/24 02:22:20;;;;;;;15.65;5.35;;;;;;;;;;1027058;28;20066;-74
2022/08/24 02:22:51;;;;;;;11.55;4.28;;;;;;;;;;1026677;28;20052;-74
2022/08/24 02:23:22;;;;;;;24.83;5.40;;;;;;;;;;1026415;28;20129;-74
2022/08/24 02:23:52;;;;;;;13.13;5.05;;;;;;;;;;1026170;28;20035;-74
2022/08/24 02:24:23;;;;;;;13.60;4.63;;;;;;;;;;1027105;28;20177;-74
2022/08/24 02:24:53;;;;;;;25.95;5.03;;;;;;;;;;1025763;28;20477;-74
2022/08/24 02:25:26;;;;;;;23.40;6.80;;;;;;;;;;1029287;28;20069;-74
2022/08/24 02:25:56;;;;;;;15.02;5.15;;;;;;;;;;1026062;28;20032;-74
2022/08/24 02:26:27;;;;;;;17.38;4.68;;;;;;;;;;1026414;28;20038;-74
2022/08/24 02:26:58;;;;;;;18.15;4.00;;;;;;;;;;1027422;28;20023;-74
2022/08/24 02:27:28;;;;;;;28.05;5.15;;;;;;;;;;1027498;28;20069;-74
2022/08/24 02:27:59;;;;;;;16.08;4.68;;;;;;;;;;1027800;28;20023;-74
2022/08/24 02:28:29;;;;;;;9.57;4.15;;;;;;;;;;1025889;28;20034;-74
2022/08/24 02:29:00;;;;;;;13.57;5.07;;;;;;;;;;1027872;28;20493;-74
2022/08/24 02:29:31;;;;;;;19.45;4.60;;;;;;;;;;1026388;28;20022;-74
2022/08/24 02:30:01;;;;;;;20.60;4.25;;;;;;;;;;1026422;28;20019;-74
2022/08/24 02:30:32;;;;;;;13.77;3.85;;;;;;;;;;1026331;28;20567;-74
2022/08/24 02:31:04;;;;;;;16.58;4.93;;;;;;;;;;1027497;28;20110;-74
2022/08/24 02:31:35;;;;;;;13.48;4.72;;;;;;;;;;1027497;28;20121;-74
2022/08/24 02:32:06;;;;;;;14.63;3.65;;;;;;;;;;1026652;28;20398;-74
2022/08/24 02:32:37;;;;;;;10.57;3.85;;;;;;;;;;1022405;28;20019;-74
2022/08/24 02:33:07;;;;;;;18.38;5.82;;;;;;;;;;1022302;28;20035;-74
2022/08/24 02:33:38;;;;;;;11.32;4.10;;;;;;;;;;1021529;29;20593;-74
2022/08/24 02:34:08;;;;;;;9.57;4.65;;;;;;;;;;1026018;28;20018;-74
2022/08/24 02:34:39;;;;;;;23.15;7.07;;;;;;;;;;1027511;28;20142;-74
2022/08/24 02:35:10;;;;;;;20.20;4.97;;;;;;;;;;1024804;28;20019;-74
2022/08/24 02:35:41;;;;;;;15.85;4.03;;;;;;;;;;1027093;28;20113;-74
2022/08/24 02:36:12;;;;;;;19.83;5.32;;;;;;;;;;1025395;28;20035;-74
2022/08/24 02:36:43;;;;;;;14.13;4.55;;;;;;;;;;1026848;28;20035;-74
2022/08/24 02:37:13;;;;;;;25.58;4.60;;;;;;;;;;1025202;28;20022;-74
2022/08/24 02:37:44;;;;;;;18.33;5.35;;;;;;;;;;1027764;28;20619;-74
2022/08/24 02:38:15;;;;;;;17.05;4.38;;;;;;;;;;1026505;28;20085;-74
2022/08/24 02:38:45;;;;;;;16.42;3.85;;;;;;;;;;1025812;28;20403;-74
2022/08/24 02:39:16;;;;;;;16.73;4.95;;;;;;;;;;1027329;28;20149;-74
2022/08/24 02:39:47;;;;;;;17.38;4.70;;;;;;;;;;1026304;28;20403;-74
2022/08/24 02:40:17;;;;;;;8.55;3.58;;;;;;;;;;1027554;28;20077;-74
2022/08/24 02:40:48;;;;;;;13.38;3.72;;;;;;;;;;1026725;28;20125;-74
2022/08/24 02:41:19;;;;;;;12.45;4.15;;;;;;;;;;1027406;28;20027;-74
2022/08/24 02:41:50;;;;;;;17.17;4.88;;;;;;;;;;1027389;28;20034;-74
2022/08/24 02:42:20;;;;;;;22.63;4.75;;;;;;;;;;1027224;28;20081;-74
2022/08/24 02:42:51;;;;;;;20.13;4.60;;;;;;;;;;1025708;28;20086;-74
2022/08/24 02:43:23;;;;;;;13.93;4.38;;;;;;;;;;1028322;28;20041;-74
2022/08/24 02:43:54;;;;;;;12.50;4.55;;;;;;;;;;1026697;28;20407;-74
2022/08/24 02:44:25;;;;;;;12.10;5.53;;;;;;;;;;1025164;28;20026;-74
2022/08/24 02:44:55;;;;;;;24.83;4.38;;;;;;;;;;1028003;28;20476;-74
2022/08/24 02:45:26;;;;;;;21.40;4.75;;;;;;;;;;1027577;28;20034;-74
2022/08/24 02:45:56;;;;;;;25.17;5.40;;;;;;;;;;1027562;28;20027;-74
2022/08/24 02:46:28;;;;;;;21.10;5.90;;;;;;;;;;1027547;28;20242;-74
2022/08/24 02:46:59;;;;;;;23.15;5.10;;;;;;;;;;1026473;28;20122;-74
2022/08/24 02:47:30;;;;;;;20.50;5.32;;;;;;;;;;1026990;28;20035;-74
2022/08/24 02:48:00;;;;;;;21.65;4.40;;;;;;;;;;1027151;28;20117;-74
2022/08/24 02:48:31;;;;;;;22.40;4.47;;;;;;;;;;1027354;28;20038;-75
2022/08/24 02:49:03;;;;;;;14.02;5.43;;;;;;;;;;1027162;28;20026;-74
2022/08/24 02:49:34;;;;;;;22.73;5.53;;;;;;;;;;1027407;28;20035;-74
2022/08/24 02:50:05;;;;;;;18.13;5.75;;;;;;;;;;1027736;28;20011;-74
2022/08/24 02:50:42;;;;;;;18.55;4.97;;;;;;;;;;1026350;28;20538;-75
2022/08/24 02:51:19;;;;;;;23.85;4.20;;;;;;;;;;1026942;28;20026;-75
2022/08/24 02:51:50;;;;;;;26.45;4.75;;;;;;;;;;1025315;28;20037;-75
2022/08/24 02:52:20;;;;;;;21.20;5.07;;;;;;;;;;1024839;28;20042;-74
2022/08/24 02:52:51;;;;;;;14.18;5.13;;;;;;;;;;1027351;28;20038;-74
2022/08/24 02:53:22;;;;;;;16.17;4.20;;;;;;;;;;1024435;28;20023;-74
2022/08/24 02:53:53;;;;;;;27.38;5.00;;;;;;;;;;1025453;28;20026;-74
2022/08/24 02:54:23;;;;;;;21.52;6.00;;;;;;;;;;1024454;28;20038;-74
2022/08/24 02:54:54;;;;;;;29.33;5.20;;;;;;;;;;1025986;28;20031;-74
2022/08/24 02:55:25;;;;;;;23.40;5.82;;;;;;;;;;1026793;28;20092;-75
2022/08/24 02:55:55;;;;;;;21.25;5.13;;;;;;;;;;1026578;28;20018;-74
2022/08/24 02:56:28;;;;;;;15.48;5.05;;;;;;;;;;1027352;28;20442;-74
2022/08/24 02:56:59;;;;;;;26.55;6.35;;;;;;;;;;1026816;28;20038;-74
2022/08/24 02:57:29;;;;;;;10.77;4.15;;;;;;;;;;1027324;28;20518;-74
2022/08/24 02:58:00;;;;;;;24.67;6.30;;;;;;;;;;1027059;28;20058;-74
2022/08/24 02:58:31;;;;;;;18.20;4.97;;;;;;;;;;1023386;28;20475;-74
2022/08/24 02:59:01;;;;;;;42.72;6.43;;;;;;;;;;1024511;28;20019;-74
2022/08/24 02:59:32;;;;;;;24.58;5.22;;;;;;;;;;1025974;28;20122;-74
2022/08/24 03:00:04;;;;;;;13.77;5.88;;;;;;;;;;1027012;28;20111;-74
2022/08/24 03:00:35;;;;;;;11.45;4.90;;;;;;;;;;1027005;28;20045;-74
2022/08/24 03:01:07;;;;;;;9.50;4.60;;;;;;;;;;1026035;28;20051;-74
2022/08/24 03:01:37;;;;;;;17.45;4.70;;;;;;;;;;1026384;28;20078;-74
2022/08/24 03:02:08;;;;;;;8.50;3.70;;;;;;;;;;1026966;28;20023;-74
2022/08/24 03:02:38;;;;;;;21.90;4.70;;;;;;;;;;1023394;28;20019;-74
2022/08/24 03:03:10;;;;;;;14.38;5.32;;;;;;;;;;1023237;28;20137;-74
2022/08/24 03:03:40;;;;;;;13.13;5.80;;;;;;;;;;1026840;28;20069;-74
2022/08/24 03:04:11;;;;;;;18.23;5.07;;;;;;;;;;1025254;28;20041;-75
2022/08/24 03:04:42;;;;;;;14.85;4.50;;;;;;;;;;1027564;28;20031;-75
2022/08/24 03:05:14;;;;;;;22.95;5.07;;;;;;;;;;1026145;28;20027;-74
2022/08/24 03:05:44;;;;;;;13.40;4.38;;;;;;;;;;1025342;28;20031;-74
2022/08/24 03:06:15;;;;;;;9.80;5.07;;;;;;;;;;1025415;28;20373;-74
2022/08/24 03:06:45;;;;;;;17.92;5.13;;;;;;;;;;1025414;28;20122;-74
2022/08/24 03:07:16;;;;;;;14.82;4.93;;;;;;;;;;1025516;28;20019;-74
2022/08/24 03:07:46;;;;;;;18.50;6.50;;;;;;;;;;1025634;28;20403;-74
2022/08/24 03:08:17;;;;;;;38.03;5.80;;;;;;;;;;1025476;28;20019;-74
2022/08/24 03:08:48;;;;;;;17.33;5.75;;;;;;;;;;1024360;28;20134;-74
2022/08/24 03:09:18;;;;;;;15.25;6.20;;;;;;;;;;1024751;28;20023;-74
2022/08/24 03:09:49;;;;;;;28.27;5.25;;;;;;;;;;1025703;28;20097;-74
2022/08/24 03:10:20;;;;;;;24.42;6.13;;;;;;;;;;1025570;28;20030;-74
2022/08/24 03:10:50;;;;;;;12.70;4.30;;;;;;;;;;1024242;28;20039;-74